createdAt,value
2023-03-05T00:00:48.898Z,4.03
2023-03-05T00:03:50.273Z,3.97
2023-03-05T00:06:51.613Z,4.50
2023-03-05T00:09:52.901Z,4.30
2023-03-05T00:12:54.220Z,4.47
2023-03-05T00:15:55.539Z,4.63
2023-03-05T00:18:56.829Z,4.13
2023-03-05T00:21:58.129Z,3.47
2023-03-05T00:24:59.431Z,3.75
2023-03-05T00:28:00.744Z,3.60
2023-03-05T00:31:02.071Z,4.05
2023-03-05T00:34:03.416Z,4.17
2023-03-05T00:37:04.704Z,4.00
2023-03-05T00:40:06.045Z,3.92
2023-03-05T00:43:07.358Z,4.57
2023-03-05T00:46:08.682Z,3.50
2023-03-05T00:49:10.020Z,4.13
2023-03-05T00:52:11.313Z,3.88
2023-03-05T00:55:12.609Z,4.35
2023-03-05T00:58:13.928Z,3.90
2023-03-05T01:01:15.204Z,3.80
2023-03-05T01:04:16.512Z,3.57
2023-03-05T01:07:17.833Z,3.90
2023-03-05T01:10:19.140Z,3.90
2023-03-05T01:13:20.453Z,3.53
2023-03-05T01:16:21.810Z,3.53
2023-03-05T01:19:23.157Z,3.17
2023-03-05T01:22:24.465Z,3.63
2023-03-05T01:25:25.768Z,4.03
2023-03-05T01:28:27.070Z,3.90
2023-03-05T01:31:28.398Z,3.67
2023-03-05T01:34:29.702Z,3.53
2023-03-05T01:37:31.002Z,3.67
2023-03-05T01:40:32.301Z,3.50
2023-03-05T01:43:33.640Z,3.33
2023-03-05T01:46:35.005Z,3.30
2023-03-05T01:49:36.346Z,3.33
2023-03-05T01:52:37.624Z,3.35
2023-03-05T01:55:38.929Z,3.08
2023-03-05T01:58:40.234Z,2.97
2023-03-05T02:01:41.528Z,3.08
2023-03-05T02:04:42.820Z,3.17
2023-03-05T02:07:44.128Z,3.05
2023-03-05T02:10:45.431Z,3.05
2023-03-05T02:13:46.750Z,3.40
2023-03-05T02:16:48.069Z,3.00
2023-03-05T02:19:49.375Z,2.67
2023-03-05T02:22:50.681Z,3.15
2023-03-05T02:25:51.964Z,3.72
2023-03-05T02:28:53.299Z,3.42
2023-03-05T02:31:54.663Z,3.28
2023-03-05T02:34:55.976Z,3.27
2023-03-05T02:37:57.269Z,2.70
2023-03-05T02:40:58.569Z,3.28
2023-03-05T02:43:59.834Z,3.05
2023-03-05T02:47:01.142Z,3.38
2023-03-05T02:50:02.440Z,2.67
2023-03-05T02:53:03.748Z,2.72
2023-03-05T02:56:05.070Z,2.67
2023-03-05T02:59:06.357Z,2.45
2023-03-05T03:02:07.658Z,2.08
2023-03-05T03:05:08.962Z,2.50
2023-03-05T03:08:10.249Z,3.03
2023-03-05T03:11:11.563Z,3.25
2023-03-05T03:14:12.872Z,2.80
2023-03-05T03:17:14.147Z,2.58
2023-03-05T03:20:15.459Z,3.03
2023-03-05T03:23:16.754Z,2.70
2023-03-05T03:26:18.049Z,3.13
2023-03-05T03:29:19.365Z,2.97
2023-03-05T03:32:20.708Z,2.85
2023-03-05T03:35:22.052Z,2.77
2023-03-05T03:38:23.383Z,2.40
2023-03-05T03:41:24.672Z,2.85
2023-03-05T03:44:25.968Z,3.17
2023-03-05T03:47:27.287Z,3.70
2023-03-05T03:50:28.597Z,2.80
2023-03-05T03:53:29.899Z,3.20
2023-03-05T03:56:31.191Z,2.88
2023-03-05T03:59:32.516Z,2.42
2023-03-05T04:02:33.884Z,3.08
2023-03-05T04:05:35.247Z,2.30
2023-03-05T04:08:36.550Z,2.67
2023-03-05T04:11:37.826Z,2.90
2023-03-05T04:14:39.130Z,2.67
2023-03-05T04:17:40.412Z,3.08
2023-03-05T04:20:41.708Z,3.23
2023-03-05T04:23:43.012Z,2.85
2023-03-05T04:26:44.323Z,3.75
2023-03-05T04:29:45.624Z,3.25
2023-03-05T04:32:46.957Z,3.45
2023-03-05T04:35:48.318Z,3.53
2023-03-05T04:38:49.631Z,3.53
2023-03-05T04:41:50.916Z,3.20
2023-03-05T04:44:52.236Z,3.53
2023-03-05T04:47:53.540Z,4.10
2023-03-05T04:50:54.836Z,4.10
2023-03-05T04:53:56.118Z,3.90
2023-03-05T04:56:57.437Z,4.05
2023-03-05T04:59:58.738Z,3.10
2023-03-05T05:03:00.108Z,3.83
2023-03-05T05:06:01.525Z,3.33
2023-03-05T05:09:02.824Z,4.00
2023-03-05T05:12:04.117Z,4.30
2023-03-05T05:15:05.404Z,3.92
2023-03-05T05:18:06.731Z,3.80
2023-03-05T05:21:08.020Z,3.97
2023-03-05T05:24:09.317Z,3.65
2023-03-05T05:27:10.619Z,4.10
2023-03-05T05:30:11.951Z,4.38
2023-03-05T05:33:13.228Z,4.60
2023-03-05T05:36:14.538Z,4.37
2023-03-05T05:39:15.824Z,4.20
2023-03-05T05:42:17.132Z,3.90
2023-03-05T05:45:18.487Z,4.43
2023-03-05T05:48:19.801Z,4.45
2023-03-05T05:51:21.102Z,5.00
2023-03-05T05:54:22.401Z,4.90
2023-03-05T05:57:23.709Z,4.97
2023-03-05T06:00:24.985Z,4.57
2023-03-05T06:03:26.362Z,4.82
2023-03-05T06:06:27.825Z,4.60
2023-03-05T06:09:29.128Z,4.50
2023-03-05T06:12:30.450Z,4.55
2023-03-05T06:15:31.795Z,5.53
2023-03-05T06:18:33.093Z,4.82
2023-03-05T06:21:34.423Z,5.70
2023-03-05T06:24:35.740Z,5.93
2023-03-05T06:27:37.030Z,6.03
2023-03-05T06:30:38.366Z,5.05
2023-03-05T06:33:39.669Z,5.43
2023-03-05T06:36:40.972Z,5.20
2023-03-05T06:39:42.257Z,5.57
2023-03-05T06:42:43.558Z,5.68
2023-03-05T06:45:44.886Z,6.13
2023-03-05T06:48:46.268Z,5.28
2023-03-05T06:51:47.612Z,5.23
2023-03-05T06:54:48.929Z,4.78
2023-03-05T06:57:50.229Z,5.43
2023-03-05T07:00:51.558Z,4.65
2023-03-05T07:03:52.864Z,4.72
2023-03-05T07:06:54.169Z,4.97
2023-03-05T07:09:55.467Z,4.70
2023-03-05T07:12:56.781Z,5.03
2023-03-05T07:15:58.172Z,4.47
2023-03-05T07:18:59.530Z,5.07
2023-03-05T07:22:00.835Z,5.07
2023-03-05T07:25:02.142Z,4.57
2023-03-05T07:28:03.439Z,4.68
2023-03-05T07:31:04.807Z,4.22
2023-03-05T07:34:06.131Z,4.45
2023-03-05T07:37:07.438Z,4.17
2023-03-05T07:40:08.750Z,3.92
2023-03-05T07:43:10.101Z,4.45
2023-03-05T07:46:11.494Z,4.20
2023-03-05T07:49:12.831Z,4.32
2023-03-05T07:52:14.137Z,4.77
2023-03-05T07:55:15.441Z,4.80
2023-03-05T07:58:16.758Z,4.72
2023-03-05T08:01:18.073Z,4.10
2023-03-05T08:04:19.395Z,4.78
2023-03-05T08:07:20.767Z,4.67
2023-03-05T08:10:22.048Z,4.68
2023-03-05T08:13:23.348Z,4.75
2023-03-05T08:16:24.660Z,4.95
2023-03-05T08:19:25.962Z,3.72
2023-03-05T08:22:27.253Z,3.77
2023-03-05T08:25:28.568Z,3.88
2023-03-05T08:28:29.860Z,4.38
2023-03-05T08:31:31.211Z,3.90
2023-03-05T08:34:32.538Z,4.35
2023-03-05T08:37:33.822Z,3.97
2023-03-05T08:40:35.145Z,3.67
2023-03-05T08:43:36.440Z,4.15
2023-03-05T08:46:37.768Z,4.18
2023-03-05T08:49:39.106Z,4.05
2023-03-05T08:52:40.389Z,4.67
2023-03-05T08:55:44.121Z,3.97
2023-03-05T08:58:45.547Z,4.00
2023-03-05T09:01:46.870Z,3.67
2023-03-05T09:04:48.195Z,4.10
2023-03-05T09:07:49.490Z,4.13
2023-03-05T09:10:50.802Z,4.22
2023-03-05T09:13:52.121Z,4.25
2023-03-05T09:16:53.435Z,4.45
2023-03-05T09:19:54.738Z,4.28
2023-03-05T09:22:56.059Z,4.13
2023-03-05T09:25:57.361Z,3.63
2023-03-05T09:28:58.649Z,4.40
2023-03-05T09:32:00.049Z,3.63
2023-03-05T09:35:01.453Z,3.63
2023-03-05T09:38:02.744Z,3.97
2023-03-05T09:41:04.060Z,3.90
2023-03-05T09:44:05.374Z,3.63
2023-03-05T09:47:06.686Z,3.30
2023-03-05T09:50:07.974Z,3.95
2023-03-05T09:53:09.274Z,3.63
2023-03-05T09:56:10.560Z,3.97
2023-03-05T09:59:11.884Z,4.13
2023-03-05T10:02:13.190Z,4.18
2023-03-05T10:05:14.496Z,3.95
2023-03-05T10:08:15.840Z,4.07
2023-03-05T10:11:17.121Z,3.78
2023-03-05T10:14:18.453Z,4.20
2023-03-05T10:17:19.757Z,3.83
2023-03-05T10:20:21.058Z,3.78
2023-03-05T10:23:22.392Z,3.40
2023-03-05T10:26:23.692Z,3.75
2023-03-05T10:29:24.982Z,3.50
2023-03-05T10:32:26.298Z,3.75
2023-03-05T10:35:27.661Z,4.40
2023-03-05T10:38:29.020Z,3.87
2023-03-05T10:41:30.338Z,3.35
2023-03-05T10:44:31.660Z,3.80
2023-03-05T10:47:32.958Z,3.60
2023-03-05T10:50:34.259Z,4.00
2023-03-05T10:53:35.638Z,3.70
2023-03-05T10:56:36.977Z,3.55
2023-03-05T10:59:38.977Z,4.00
2023-03-05T11:02:40.343Z,3.78
2023-03-05T11:05:41.653Z,4.57
2023-03-05T11:08:42.998Z,3.73
2023-03-05T11:11:44.707Z,3.42
2023-03-05T11:14:46.112Z,3.15
2023-03-05T11:17:48.229Z,3.72
2023-03-05T11:20:49.592Z,3.75
2023-03-05T11:23:51.187Z,3.70
2023-03-05T11:26:52.554Z,3.50
2023-03-05T11:29:53.867Z,3.80
2023-03-05T11:32:55.582Z,3.25
2023-03-05T11:35:57.027Z,3.53
2023-03-05T11:38:58.383Z,3.40
2023-03-05T11:41:59.660Z,3.88
2023-03-05T11:45:00.969Z,3.42
2023-03-05T11:48:02.276Z,3.42
2023-03-05T11:51:03.606Z,3.38
2023-03-05T11:54:04.899Z,3.60
2023-03-05T11:57:06.209Z,3.40
2023-03-05T12:00:07.513Z,3.78
2023-03-05T12:03:08.917Z,3.30
2023-03-05T12:06:10.363Z,3.00
2023-03-05T12:09:11.690Z,3.53
2023-03-05T12:12:12.990Z,2.78
2023-03-05T12:15:14.506Z,3.25
2023-03-05T12:18:15.849Z,2.88
2023-03-05T12:21:17.759Z,3.58
2023-03-05T12:24:19.230Z,3.70
2023-03-05T12:27:20.545Z,3.95
2023-03-05T12:30:24.282Z,3.50
2023-03-05T12:33:25.845Z,3.20
2023-03-05T12:36:27.507Z,3.65
2023-03-05T12:39:28.888Z,3.30
2023-03-05T12:42:30.284Z,2.80
2023-03-05T12:45:31.589Z,3.55
2023-03-05T12:48:32.986Z,3.25
2023-03-05T12:51:34.396Z,2.55
2023-03-05T12:54:35.736Z,3.50
2023-03-05T12:57:37.484Z,3.17
2023-03-05T13:00:38.883Z,3.22
2023-03-05T13:03:40.686Z,2.90
2023-03-05T13:06:45.072Z,3.60
2023-03-05T13:09:47.401Z,2.87
2023-03-05T13:12:48.796Z,3.05
2023-03-05T13:15:50.166Z,3.10
2023-03-05T13:18:51.498Z,3.17
2023-03-05T13:21:53.074Z,2.72
2023-03-05T13:24:54.815Z,3.37
2023-03-05T13:27:56.610Z,2.55
2023-03-05T13:30:58.413Z,3.42
2023-03-05T13:33:59.990Z,2.47
2023-03-05T13:37:01.619Z,2.85
2023-03-05T13:40:03.120Z,2.63
2023-03-05T13:43:04.859Z,2.90
2023-03-05T13:46:06.668Z,3.35
2023-03-05T13:49:08.077Z,2.92
2023-03-05T13:52:09.640Z,2.35
2023-03-05T13:55:14.566Z,2.43
2023-03-05T13:58:16.731Z,3.00
2023-03-05T14:01:19.316Z,2.58
2023-03-05T14:04:20.874Z,2.67
2023-03-05T14:07:22.233Z,2.97
2023-03-05T14:10:23.978Z,2.87
2023-03-05T14:13:25.726Z,2.97
2023-03-05T14:16:28.514Z,2.63
2023-03-05T14:19:30.360Z,2.63
2023-03-05T14:22:32.145Z,2.88
2023-03-05T14:25:33.788Z,2.57
2023-03-05T14:28:35.793Z,2.47
2023-03-05T14:31:37.443Z,3.42
2023-03-05T14:34:39.180Z,3.25
2023-03-05T14:37:41.050Z,3.15
2023-03-05T14:40:46.611Z,3.00
2023-03-05T14:43:48.412Z,2.80
2023-03-05T14:46:50.449Z,2.85
2023-03-05T14:49:52.324Z,2.42
2023-03-05T14:52:54.022Z,2.95
2023-03-05T14:55:55.890Z,3.10
2023-03-05T14:58:57.741Z,3.00
2023-03-05T15:01:59.124Z,2.72
2023-03-05T15:05:00.844Z,3.03
2023-03-05T15:08:02.823Z,3.35
2023-03-05T15:11:04.704Z,3.40
2023-03-05T15:14:06.508Z,3.47
2023-03-05T15:17:08.394Z,3.03
2023-03-05T15:20:10.295Z,2.65
2023-03-05T15:23:12.097Z,3.28
2023-03-05T15:26:13.872Z,3.13
2023-03-05T15:29:16.263Z,3.05
2023-03-05T15:32:19.192Z,3.35
2023-03-05T15:35:23.223Z,3.05
2023-03-05T15:38:25.134Z,3.60
2023-03-05T15:41:27.045Z,3.43
2023-03-05T15:44:28.906Z,3.60
2023-03-05T15:47:33.331Z,3.33
2023-03-05T15:50:35.754Z,3.15
2023-03-05T15:53:37.182Z,3.47
2023-03-05T15:56:38.483Z,3.43
2023-03-05T15:59:40.302Z,2.90
2023-03-05T16:02:42.326Z,2.92
2023-03-05T16:05:44.403Z,3.10
2023-03-05T16:08:46.272Z,3.63
2023-03-05T16:11:48.268Z,3.40
2023-03-05T16:14:50.997Z,3.42
2023-03-05T16:17:53.847Z,3.33
2023-03-05T16:20:56.163Z,2.85
2023-03-05T16:23:58.040Z,3.47
2023-03-05T16:26:59.881Z,3.17
2023-03-05T16:30:01.351Z,3.22
2023-03-05T16:33:04.038Z,3.58
2023-03-05T16:36:05.964Z,3.72
2023-03-05T16:39:07.738Z,3.65
2023-03-05T16:42:09.574Z,3.57
2023-03-05T16:45:12.559Z,3.33
2023-03-05T16:48:14.381Z,3.92
2023-03-05T16:51:15.792Z,3.78
2023-03-05T16:54:17.607Z,3.28
2023-03-05T16:57:19.460Z,4.37
2023-03-05T17:00:21.984Z,4.30
2023-03-05T17:03:23.878Z,3.60
2023-03-05T17:06:28.418Z,3.50
2023-03-05T17:09:30.301Z,3.92
2023-03-05T17:12:32.828Z,3.73
2023-03-05T17:15:34.664Z,3.72
2023-03-05T17:18:36.606Z,4.55
2023-03-05T17:21:40.521Z,4.35
2023-03-05T17:24:44.262Z,3.88
2023-03-05T17:27:46.091Z,4.33
2023-03-05T17:30:47.982Z,4.50
2023-03-05T17:33:49.904Z,4.72
2023-03-05T17:36:51.725Z,5.20
2023-03-05T17:39:53.567Z,4.63
2023-03-05T17:42:55.598Z,4.77
2023-03-05T17:45:57.530Z,4.70
2023-03-05T17:48:59.527Z,4.10
2023-03-05T17:52:01.436Z,4.03
2023-03-05T17:55:03.316Z,4.68
2023-03-05T17:58:06.284Z,5.00
2023-03-05T18:01:08.236Z,4.32
2023-03-05T18:04:09.701Z,3.97
2023-03-05T18:07:11.509Z,4.40
2023-03-05T18:10:13.429Z,4.70
2023-03-05T18:13:15.873Z,4.57
2023-03-05T18:16:17.324Z,5.28
2023-03-05T18:19:20.007Z,4.60
2023-03-05T18:22:21.862Z,4.72
2023-03-05T18:25:23.735Z,4.93
2023-03-05T18:28:25.552Z,4.30
2023-03-05T18:31:27.517Z,4.68
2023-03-05T18:34:29.919Z,4.55
2023-03-05T18:37:31.932Z,4.95
2023-03-05T18:40:33.812Z,4.28
2023-03-05T18:43:35.239Z,4.47
2023-03-05T18:46:37.075Z,4.45
2023-03-05T18:49:38.979Z,5.07
2023-03-05T18:52:40.946Z,4.60
2023-03-05T18:55:44.675Z,4.90
2023-03-05T18:58:46.560Z,4.97
2023-03-05T19:01:48.471Z,4.30
2023-03-05T19:04:50.352Z,4.70
2023-03-05T19:07:52.279Z,5.25
2023-03-05T19:10:54.249Z,5.18
2023-03-05T19:13:56.127Z,4.83
2023-03-05T19:16:57.985Z,4.40
2023-03-05T19:19:59.392Z,5.22
2023-03-05T19:23:01.233Z,5.28
2023-03-05T19:26:03.104Z,5.32
2023-03-05T19:29:06.049Z,5.33
2023-03-05T19:32:09.022Z,4.45
2023-03-05T19:35:11.319Z,4.78
2023-03-05T19:38:13.128Z,4.80
2023-03-05T19:41:15.067Z,5.82
2023-03-05T19:44:17.230Z,5.77
2023-03-05T19:47:18.786Z,5.30
2023-03-05T19:50:20.577Z,5.93
2023-03-05T19:53:22.523Z,6.13
2023-03-05T19:56:24.443Z,5.32
2023-03-05T19:59:25.825Z,6.70
2023-03-05T20:02:27.576Z,5.50
2023-03-05T20:05:29.469Z,5.70
2023-03-05T20:08:32.433Z,6.00
2023-03-05T20:11:34.325Z,6.03
2023-03-05T20:14:39.492Z,5.87
2023-03-05T20:17:41.749Z,6.97
2023-03-05T20:20:43.610Z,6.53
2023-03-05T20:23:45.486Z,6.55
2023-03-05T20:26:47.394Z,7.30
2023-03-05T20:29:52.057Z,6.63
2023-03-05T20:32:54.181Z,6.80
2023-03-05T20:35:55.812Z,6.90
2023-03-05T20:38:57.635Z,7.50
2023-03-05T20:41:59.540Z,7.57
2023-03-05T20:45:02.477Z,7.03
2023-03-05T20:48:04.358Z,7.03
2023-03-05T20:51:06.181Z,7.32
2023-03-05T20:54:08.111Z,7.55
2023-03-05T20:57:09.980Z,7.88
2023-03-05T21:00:11.383Z,7.80
2023-03-05T21:03:13.169Z,7.20
2023-03-05T21:06:14.556Z,8.02
2023-03-05T21:09:16.227Z,8.13
2023-03-05T21:12:18.059Z,8.82
2023-03-05T21:15:19.925Z,8.17
2023-03-05T21:18:22.737Z,8.10
2023-03-05T21:21:24.486Z,8.20
2023-03-05T21:24:26.208Z,8.20
2023-03-05T21:27:28.012Z,8.52
2023-03-05T21:30:29.648Z,8.30
2023-03-05T21:33:31.409Z,8.95
2023-03-05T21:36:33.285Z,9.05
2023-03-05T21:39:35.093Z,8.38
2023-03-05T21:42:36.460Z,9.02
2023-03-05T21:45:37.821Z,8.97
2023-03-05T21:48:39.136Z,8.52
2023-03-05T21:51:40.431Z,8.55
2023-03-05T21:54:41.730Z,8.85
2023-03-05T21:57:43.025Z,9.10
2023-03-05T22:00:44.482Z,9.53
2023-03-05T22:03:45.872Z,9.18
2023-03-05T22:06:47.225Z,9.45
2023-03-05T22:09:48.524Z,10.05
2023-03-05T22:12:49.824Z,9.38
2023-03-05T22:15:51.144Z,9.87
2023-03-05T22:18:52.440Z,9.05
2023-03-05T22:21:53.744Z,10.27
2023-03-05T22:24:55.039Z,10.05
2023-03-05T22:27:56.359Z,9.40
2023-03-05T22:30:57.719Z,10.63
2023-03-05T22:33:59.065Z,10.82
2023-03-05T22:37:00.356Z,10.75
2023-03-05T22:40:01.670Z,11.20
2023-03-05T22:43:02.962Z,11.32
2023-03-05T22:46:04.297Z,11.00
2023-03-05T22:49:05.618Z,10.75
2023-03-05T22:52:06.913Z,10.88
2023-03-05T22:55:08.193Z,10.48
2023-03-05T22:58:09.461Z,11.52
2023-03-05T23:01:10.773Z,12.07
2023-03-05T23:04:12.124Z,10.38
2023-03-05T23:07:13.423Z,11.75
2023-03-05T23:10:14.711Z,11.38
2023-03-05T23:13:16.028Z,11.32
2023-03-05T23:16:17.372Z,11.87
2023-03-05T23:19:18.700Z,12.00
2023-03-05T23:22:19.989Z,11.10
2023-03-05T23:25:21.292Z,11.05
2023-03-05T23:28:22.590Z,11.48
2023-03-05T23:31:24.016Z,10.63
2023-03-05T23:34:25.367Z,10.52
2023-03-05T23:37:26.674Z,11.45
2023-03-05T23:40:28.030Z,10.07
2023-03-05T23:43:29.360Z,10.43
2023-03-05T23:46:30.723Z,10.10
2023-03-05T23:49:32.114Z,10.63
2023-03-05T23:52:33.411Z,10.00
2023-03-05T23:55:34.735Z,9.63
2023-03-05T23:58:36.039Z,9.40
